sensor_id;sensor_type;location;lat;lon;timestamp;P1;durP1;ratioP1;P2;durP2;ratioP2
14849;SDS011;7517;48.400;11.770;2023-04-23T00:02:00;3.23;;;2.90;;
14849;SDS011;7517;48.400;11.770;2023-04-23T00:04:30;4.40;;;3.00;;
14849;SDS011;7517;48.400;11.770;2023-04-23T00:07:00;3.47;;;2.83;;
14849;SDS011;7517;48.400;11.770;2023-04-23T00:09:28;3.27;;;2.97;;
14849;SDS011;7517;48.400;11.770;2023-04-23T00:11:58;3.67;;;2.70;;
14849;SDS011;7517;48.400;11.770;2023-04-23T00:14:26;3.97;;;3.03;;
14849;SDS011;7517;48.400;11.770;2023-04-23T00:16:54;2.63;;;2.43;;
14849;SDS011;7517;48.400;11.770;2023-04-23T00:19:23;2.37;;;2.17;;
14849;SDS011;7517;48.400;11.770;2023-04-23T00:21:50;3.13;;;2.37;;
14849;SDS011;7517;48.400;11.770;2023-04-23T00:24:19;2.23;;;2.07;;
14849;SDS011;7517;48.400;11.770;2023-04-23T00:26:46;2.73;;;2.47;;
14849;SDS011;7517;48.400;11.770;2023-04-23T00:29:13;2.40;;;1.90;;
14849;SDS011;7517;48.400;11.770;2023-04-23T00:31:40;2.20;;;2.00;;
14849;SDS011;7517;48.400;11.770;2023-04-23T00:34:08;1.97;;;1.77;;
14849;SDS011;7517;48.400;11.770;2023-04-23T00:36:36;2.23;;;2.03;;
14849;SDS011;7517;48.400;11.770;2023-04-23T00:39:03;1.80;;;1.63;;
14849;SDS011;7517;48.400;11.770;2023-04-23T00:41:31;2.13;;;1.77;;
14849;SDS011;7517;48.400;11.770;2023-04-23T00:43:59;1.83;;;1.70;;
14849;SDS011;7517;48.400;11.770;2023-04-23T00:46:27;2.17;;;1.70;;
14849;SDS011;7517;48.400;11.770;2023-04-23T00:48:54;1.70;;;1.60;;
14849;SDS011;7517;48.400;11.770;2023-04-23T00:51:22;2.20;;;1.70;;
14849;SDS011;7517;48.400;11.770;2023-04-23T00:53:51;2.27;;;2.07;;
14849;SDS011;7517;48.400;11.770;2023-04-23T00:56:18;3.40;;;1.90;;
14849;SDS011;7517;48.400;11.770;2023-04-23T00:58:46;2.20;;;1.50;;
14849;SDS011;7517;48.400;11.770;2023-04-23T01:01:14;1.70;;;1.60;;
14849;SDS011;7517;48.400;11.770;2023-04-23T01:03:44;1.73;;;1.60;;
14849;SDS011;7517;48.400;11.770;2023-04-23T01:06:14;1.90;;;1.80;;
14849;SDS011;7517;48.400;11.770;2023-04-23T01:08:42;1.90;;;1.80;;
14849;SDS011;7517;48.400;11.770;2023-04-23T01:11:12;2.20;;;1.60;;
14849;SDS011;7517;48.400;11.770;2023-04-23T01:13:42;4.50;;;2.00;;
14849;SDS011;7517;48.400;11.770;2023-04-23T01:16:09;1.90;;;1.80;;
14849;SDS011;7517;48.400;11.770;2023-04-23T01:18:37;1.70;;;1.60;;
14849;SDS011;7517;48.400;11.770;2023-04-23T01:21:05;1.80;;;1.70;;
14849;SDS011;7517;48.400;11.770;2023-04-23T01:23:37;1.70;;;1.60;;
14849;SDS011;7517;48.400;11.770;2023-04-23T01:26:04;2.43;;;1.90;;
14849;SDS011;7517;48.400;11.770;2023-04-23T01:28:32;2.10;;;1.60;;
14849;SDS011;7517;48.400;11.770;2023-04-23T01:31:00;1.97;;;1.60;;
14849;SDS011;7517;48.400;11.770;2023-04-23T01:33:29;4.37;;;2.00;;
14849;SDS011;7517;48.400;11.770;2023-04-23T01:35:58;1.50;;;1.40;;
14849;SDS011;7517;48.400;11.770;2023-04-23T01:38:26;1.70;;;1.60;;
14849;SDS011;7517;48.400;11.770;2023-04-23T01:40:57;1.90;;;1.80;;
14849;SDS011;7517;48.400;11.770;2023-04-23T01:43:25;2.20;;;1.83;;
14849;SDS011;7517;48.400;11.770;2023-04-23T01:45:53;2.00;;;1.90;;
14849;SDS011;7517;48.400;11.770;2023-04-23T01:48:20;1.80;;;1.70;;
14849;SDS011;7517;48.400;11.770;2023-04-23T01:50:48;2.20;;;1.70;;
14849;SDS011;7517;48.400;11.770;2023-04-23T01:53:17;2.27;;;1.70;;
14849;SDS011;7517;48.400;11.770;2023-04-23T01:55:45;1.87;;;1.77;;
14849;SDS011;7517;48.400;11.770;2023-04-23T01:58:15;1.80;;;1.70;;
14849;SDS011;7517;48.400;11.770;2023-04-23T02:00:43;2.63;;;2.03;;
14849;SDS011;7517;48.400;11.770;2023-04-23T02:03:11;3.27;;;1.87;;
14849;SDS011;7517;48.400;11.770;2023-04-23T02:05:38;1.80;;;1.70;;
14849;SDS011;7517;48.400;11.770;2023-04-23T02:08:08;2.37;;;2.10;;
14849;SDS011;7517;48.400;11.770;2023-04-23T02:10:36;1.80;;;1.70;;
14849;SDS011;7517;48.400;11.770;2023-04-23T02:13:04;3.10;;;1.80;;
14849;SDS011;7517;48.400;11.770;2023-04-23T02:15:33;1.70;;;1.60;;
14849;SDS011;7517;48.400;11.770;2023-04-23T02:18:02;1.77;;;1.60;;
14849;SDS011;7517;48.400;11.770;2023-04-23T02:20:31;2.00;;;1.90;;
14849;SDS011;7517;48.400;11.770;2023-04-23T02:23:00;2.30;;;2.10;;
14849;SDS011;7517;48.400;11.770;2023-04-23T02:25:27;2.33;;;2.13;;
14849;SDS011;7517;48.400;11.770;2023-04-23T02:27:56;1.93;;;1.83;;
14849;SDS011;7517;48.400;11.770;2023-04-23T02:30:24;3.63;;;2.37;;
14849;SDS011;7517;48.400;11.770;2023-04-23T02:32:53;2.13;;;1.93;;
14849;SDS011;7517;48.400;11.770;2023-04-23T02:35:20;2.03;;;1.93;;
14849;SDS011;7517;48.400;11.770;2023-04-23T02:37:48;2.10;;;1.90;;
14849;SDS011;7517;48.400;11.770;2023-04-23T02:40:18;2.23;;;2.03;;
14849;SDS011;7517;48.400;11.770;2023-04-23T02:42:45;2.00;;;1.90;;
14849;SDS011;7517;48.400;11.770;2023-04-23T02:45:14;2.57;;;2.37;;
14849;SDS011;7517;48.400;11.770;2023-04-23T02:47:41;2.70;;;2.20;;
14849;SDS011;7517;48.400;11.770;2023-04-23T02:50:10;2.33;;;1.90;;
14849;SDS011;7517;48.400;11.770;2023-04-23T02:52:37;2.27;;;2.13;;
14849;SDS011;7517;48.400;11.770;2023-04-23T02:55:05;2.10;;;2.00;;
14849;SDS011;7517;48.400;11.770;2023-04-23T02:57:35;2.13;;;2.03;;
14849;SDS011;7517;48.400;11.770;2023-04-23T03:00:04;2.10;;;2.00;;
14849;SDS011;7517;48.400;11.770;2023-04-23T03:02:32;2.77;;;1.93;;
14849;SDS011;7517;48.400;11.770;2023-04-23T03:05:00;2.40;;;1.90;;
14849;SDS011;7517;48.400;11.770;2023-04-23T03:07:28;2.30;;;2.10;;
14849;SDS011;7517;48.400;11.770;2023-04-23T03:09:56;2.80;;;2.07;;
14849;SDS011;7517;48.400;11.770;2023-04-23T03:12:23;1.97;;;1.87;;
14849;SDS011;7517;48.400;11.770;2023-04-23T03:14:50;2.80;;;2.30;;
14849;SDS011;7517;48.400;11.770;2023-04-23T03:17:17;2.20;;;2.10;;
14849;SDS011;7517;48.400;11.770;2023-04-23T03:19:44;4.27;;;2.20;;
14849;SDS011;7517;48.400;11.770;2023-04-23T03:22:11;2.60;;;2.40;;
14849;SDS011;7517;48.400;11.770;2023-04-23T03:24:40;2.40;;;2.07;;
14849;SDS011;7517;48.400;11.770;2023-04-23T03:27:07;2.20;;;2.10;;
14849;SDS011;7517;48.400;11.770;2023-04-23T03:29:34;4.00;;;2.27;;
14849;SDS011;7517;48.400;11.770;2023-04-23T03:32:01;1.90;;;1.80;;
14849;SDS011;7517;48.400;11.770;2023-04-23T03:34:29;2.70;;;2.37;;
14849;SDS011;7517;48.400;11.770;2023-04-23T03:36:56;2.40;;;2.20;;
14849;SDS011;7517;48.400;11.770;2023-04-23T03:39:23;4.00;;;2.20;;
14849;SDS011;7517;48.400;11.770;2023-04-23T03:41:52;2.43;;;2.23;;
14849;SDS011;7517;48.400;11.770;2023-04-23T03:44:20;2.30;;;2.10;;
14849;SDS011;7517;48.400;11.770;2023-04-23T03:46:47;2.37;;;2.17;;
14849;SDS011;7517;48.400;11.770;2023-04-23T03:49:16;2.83;;;2.00;;
14849;SDS011;7517;48.400;11.770;2023-04-23T03:51:43;1.90;;;1.80;;
14849;SDS011;7517;48.400;11.770;2023-04-23T03:54:10;3.07;;;2.87;;
14849;SDS011;7517;48.400;11.770;2023-04-23T03:56:38;3.20;;;2.90;;
14849;SDS011;7517;48.400;11.770;2023-04-23T03:59:06;3.20;;;2.90;;
14849;SDS011;7517;48.400;11.770;2023-04-23T04:01:33;3.53;;;3.10;;
14849;SDS011;7517;48.400;11.770;2023-04-23T04:04:01;3.73;;;3.40;;
14849;SDS011;7517;48.400;11.770;2023-04-23T04:06:28;3.63;;;3.13;;
14849;SDS011;7517;48.400;11.770;2023-04-23T04:08:56;3.77;;;3.40;;
14849;SDS011;7517;48.400;11.770;2023-04-23T04:11:23;3.20;;;2.90;;
14849;SDS011;7517;48.400;11.770;2023-04-23T04:13:51;4.10;;;3.50;;
14849;SDS011;7517;48.400;11.770;2023-04-23T04:16:20;4.63;;;2.97;;
14849;SDS011;7517;48.400;11.770;2023-04-23T04:18:47;2.87;;;2.67;;
14849;SDS011;7517;48.400;11.770;2023-04-23T04:21:14;3.03;;;2.83;;
14849;SDS011;7517;48.400;11.770;2023-04-23T04:23:43;4.57;;;2.90;;
14849;SDS011;7517;48.400;11.770;2023-04-23T04:26:11;2.80;;;2.60;;
14849;SDS011;7517;48.400;11.770;2023-04-23T04:28:39;3.27;;;2.90;;
14849;SDS011;7517;48.400;11.770;2023-04-23T04:31:06;3.00;;;2.80;;
14849;SDS011;7517;48.400;11.770;2023-04-23T04:33:35;3.13;;;2.90;;
14849;SDS011;7517;48.400;11.770;2023-04-23T04:36:04;3.00;;;2.80;;
14849;SDS011;7517;48.400;11.770;2023-04-23T04:38:33;3.30;;;3.10;;
14849;SDS011;7517;48.400;11.770;2023-04-23T04:41:03;3.70;;;2.87;;
14849;SDS011;7517;48.400;11.770;2023-04-23T04:43:31;2.70;;;2.50;;
14849;SDS011;7517;48.400;11.770;2023-04-23T04:45:59;3.07;;;2.77;;
14849;SDS011;7517;48.400;11.770;2023-04-23T04:48:27;2.90;;;2.70;;
14849;SDS011;7517;48.400;11.770;2023-04-23T04:50:55;3.13;;;2.90;;
14849;SDS011;7517;48.400;11.770;2023-04-23T04:53:23;2.80;;;2.50;;
14849;SDS011;7517;48.400;11.770;2023-04-23T04:55:50;2.50;;;2.30;;
14849;SDS011;7517;48.400;11.770;2023-04-23T04:58:17;2.20;;;2.10;;
14849;SDS011;7517;48.400;11.770;2023-04-23T05:00:44;2.27;;;2.10;;
14849;SDS011;7517;48.400;11.770;2023-04-23T05:03:13;2.50;;;2.30;;
14849;SDS011;7517;48.400;11.770;2023-04-23T05:05:40;2.60;;;2.40;;
14849;SDS011;7517;48.400;11.770;2023-04-23T05:08:10;2.60;;;2.40;;
14849;SDS011;7517;48.400;11.770;2023-04-23T05:10:40;2.40;;;2.20;;
14849;SDS011;7517;48.400;11.770;2023-04-23T05:13:08;2.77;;;2.33;;
14849;SDS011;7517;48.400;11.770;2023-04-23T05:15:35;1.90;;;1.80;;
14849;SDS011;7517;48.400;11.770;2023-04-23T05:18:03;2.40;;;2.20;;
14849;SDS011;7517;48.400;11.770;2023-04-23T05:20:31;2.30;;;2.10;;
14849;SDS011;7517;48.400;11.770;2023-04-23T05:22:59;2.50;;;2.30;;
14849;SDS011;7517;48.400;11.770;2023-04-23T05:25:28;2.33;;;1.70;;
14849;SDS011;7517;48.400;11.770;2023-04-23T05:27:58;2.30;;;2.10;;
14849;SDS011;7517;48.400;11.770;2023-04-23T05:30:25;2.33;;;2.13;;
14849;SDS011;7517;48.400;11.770;2023-04-23T05:32:53;2.20;;;2.00;;
14849;SDS011;7517;48.400;11.770;2023-04-23T05:35:20;2.17;;;1.97;;
14849;SDS011;7517;48.400;11.770;2023-04-23T05:37:47;2.10;;;1.90;;
14849;SDS011;7517;48.400;11.770;2023-04-23T05:40:15;5.20;;;2.07;;
14849;SDS011;7517;48.400;11.770;2023-04-23T05:42:44;1.90;;;1.80;;
14849;SDS011;7517;48.400;11.770;2023-04-23T05:45:11;2.00;;;1.80;;
14849;SDS011;7517;48.400;11.770;2023-04-23T05:47:38;2.23;;;1.80;;
14849;SDS011;7517;48.400;11.770;2023-04-23T05:50:06;2.00;;;1.63;;
14849;SDS011;7517;48.400;11.770;2023-04-23T05:52:35;2.40;;;2.00;;
14849;SDS011;7517;48.400;11.770;2023-04-23T05:55:03;1.87;;;1.77;;
14849;SDS011;7517;48.400;11.770;2023-04-23T05:57:32;2.17;;;1.97;;
14849;SDS011;7517;48.400;11.770;2023-04-23T06:00:01;1.93;;;1.83;;
14849;SDS011;7517;48.400;11.770;2023-04-23T06:02:33;1.83;;;1.73;;
14849;SDS011;7517;48.400;11.770;2023-04-23T06:05:01;2.13;;;1.83;;
14849;SDS011;7517;48.400;11.770;2023-04-23T06:07:28;1.90;;;1.80;;
14849;SDS011;7517;48.400;11.770;2023-04-23T06:09:55;2.10;;;1.93;;
14849;SDS011;7517;48.400;11.770;2023-04-23T06:12:23;2.40;;;2.17;;
14849;SDS011;7517;48.400;11.770;2023-04-23T06:14:50;2.23;;;2.03;;
14849;SDS011;7517;48.400;11.770;2023-04-23T06:17:20;2.30;;;2.10;;
14849;SDS011;7517;48.400;11.770;2023-04-23T06:19:47;2.20;;;2.00;;
14849;SDS011;7517;48.400;11.770;2023-04-23T06:22:15;1.90;;;1.80;;
14849;SDS011;7517;48.400;11.770;2023-04-23T06:24:43;2.30;;;1.90;;
14849;SDS011;7517;48.400;11.770;2023-04-23T06:27:11;2.37;;;2.27;;
14849;SDS011;7517;48.400;11.770;2023-04-23T06:29:38;1.83;;;1.73;;
14849;SDS011;7517;48.400;11.770;2023-04-23T06:32:06;1.97;;;1.87;;
14849;SDS011;7517;48.400;11.770;2023-04-23T06:34:36;2.10;;;1.90;;
14849;SDS011;7517;48.400;11.770;2023-04-23T06:37:03;3.20;;;2.00;;
14849;SDS011;7517;48.400;11.770;2023-04-23T06:39:30;2.73;;;2.13;;
14849;SDS011;7517;48.400;11.770;2023-04-23T06:41:57;2.10;;;1.90;;
14849;SDS011;7517;48.400;11.770;2023-04-23T06:44:25;2.17;;;1.97;;
14849;SDS011;7517;48.400;11.770;2023-04-23T06:46:53;1.87;;;1.60;;
14849;SDS011;7517;48.400;11.770;2023-04-23T06:49:20;1.87;;;1.77;;
14849;SDS011;7517;48.400;11.770;2023-04-23T06:51:49;2.23;;;1.73;;
14849;SDS011;7517;48.400;11.770;2023-04-23T06:54:16;2.00;;;1.90;;
14849;SDS011;7517;48.400;11.770;2023-04-23T06:56:43;1.80;;;1.70;;
14849;SDS011;7517;48.400;11.770;2023-04-23T06:59:11;1.90;;;1.80;;
14849;SDS011;7517;48.400;11.770;2023-04-23T07:01:38;2.10;;;2.00;;
14849;SDS011;7517;48.400;11.770;2023-04-23T07:04:06;1.70;;;1.60;;
14849;SDS011;7517;48.400;11.770;2023-04-23T07:06:34;2.23;;;2.03;;
14849;SDS011;7517;48.400;11.770;2023-04-23T07:09:03;2.00;;;1.87;;
14849;SDS011;7517;48.400;11.770;2023-04-23T07:11:31;2.30;;;2.00;;
14849;SDS011;7517;48.400;11.770;2023-04-23T07:14:00;2.30;;;2.10;;
14849;SDS011;7517;48.400;11.770;2023-04-23T07:16:28;1.70;;;1.60;;
14849;SDS011;7517;48.400;11.770;2023-04-23T07:18:58;1.93;;;1.83;;
14849;SDS011;7517;48.400;11.770;2023-04-23T07:21:29;2.63;;;2.13;;
14849;SDS011;7517;48.400;11.770;2023-04-23T07:23:57;2.60;;;2.37;;
14849;SDS011;7517;48.400;11.770;2023-04-23T07:26:32;2.40;;;2.30;;
14849;SDS011;7517;48.400;11.770;2023-04-23T07:29:02;4.53;;;2.30;;
14849;SDS011;7517;48.400;11.770;2023-04-23T07:31:31;2.23;;;2.03;;
14849;SDS011;7517;48.400;11.770;2023-04-23T07:33:59;2.07;;;1.90;;
14849;SDS011;7517;48.400;11.770;2023-04-23T07:36:26;2.50;;;2.30;;
14849;SDS011;7517;48.400;11.770;2023-04-23T07:38:55;2.30;;;2.10;;
14849;SDS011;7517;48.400;11.770;2023-04-23T07:41:23;2.10;;;1.97;;
14849;SDS011;7517;48.400;11.770;2023-04-23T07:43:52;2.30;;;2.10;;
14849;SDS011;7517;48.400;11.770;2023-04-23T07:46:19;4.43;;;2.37;;
14849;SDS011;7517;48.400;11.770;2023-04-23T07:48:46;2.33;;;2.13;;
14849;SDS011;7517;48.400;11.770;2023-04-23T07:51:13;2.30;;;2.10;;
14849;SDS011;7517;48.400;11.770;2023-04-23T07:53:41;2.80;;;2.60;;
14849;SDS011;7517;48.400;11.770;2023-04-23T07:56:10;2.60;;;2.40;;
14849;SDS011;7517;48.400;11.770;2023-04-23T07:58:38;2.67;;;2.20;;
14849;SDS011;7517;48.400;11.770;2023-04-23T08:01:07;2.23;;;2.03;;
14849;SDS011;7517;48.400;11.770;2023-04-23T08:03:34;2.40;;;2.20;;
14849;SDS011;7517;48.400;11.770;2023-04-23T08:06:03;2.10;;;1.90;;
14849;SDS011;7517;48.400;11.770;2023-04-23T08:08:37;2.10;;;1.90;;
14849;SDS011;7517;48.400;11.770;2023-04-23T08:11:04;1.97;;;1.87;;
14849;SDS011;7517;48.400;11.770;2023-04-23T08:13:32;2.13;;;2.03;;
14849;SDS011;7517;48.400;11.770;2023-04-23T08:15:59;2.40;;;2.20;;
14849;SDS011;7517;48.400;11.770;2023-04-23T08:18:28;2.70;;;2.50;;
14849;SDS011;7517;48.400;11.770;2023-04-23T08:20:55;2.73;;;2.53;;
14849;SDS011;7517;48.400;11.770;2023-04-23T08:23:25;2.57;;;2.43;;
14849;SDS011;7517;48.400;11.770;2023-04-23T08:25:54;2.20;;;2.10;;
14849;SDS011;7517;48.400;11.770;2023-04-23T08:28:22;2.63;;;1.90;;
14849;SDS011;7517;48.400;11.770;2023-04-23T08:30:51;2.27;;;2.10;;
14849;SDS011;7517;48.400;11.770;2023-04-23T08:33:33;2.23;;;1.87;;
14849;SDS011;7517;48.400;11.770;2023-04-23T08:36:20;2.23;;;2.00;;
14849;SDS011;7517;48.400;11.770;2023-04-23T08:38:48;2.43;;;2.33;;
14849;SDS011;7517;48.400;11.770;2023-04-23T08:41:18;2.17;;;2.00;;
14849;SDS011;7517;48.400;11.770;2023-04-23T08:43:55;4.57;;;4.27;;
14849;SDS011;7517;48.400;11.770;2023-04-23T08:46:49;4.37;;;4.07;;
14849;SDS011;7517;48.400;11.770;2023-04-23T08:49:21;3.60;;;3.40;;
14849;SDS011;7517;48.400;11.770;2023-04-23T08:51:51;3.13;;;2.93;;
14849;SDS011;7517;48.400;11.770;2023-04-23T08:54:20;3.60;;;3.40;;
14849;SDS011;7517;48.400;11.770;2023-04-23T08:56:53;2.83;;;2.73;;
14849;SDS011;7517;48.400;11.770;2023-04-23T08:59:22;4.07;;;3.67;;
14849;SDS011;7517;48.400;11.770;2023-04-23T09:01:51;2.80;;;2.60;;
14849;SDS011;7517;48.400;11.770;2023-04-23T09:04:21;2.80;;;2.60;;
14849;SDS011;7517;48.400;11.770;2023-04-23T09:06:49;2.67;;;2.50;;
14849;SDS011;7517;48.400;11.770;2023-04-23T09:09:17;1.97;;;1.83;;
14849;SDS011;7517;48.400;11.770;2023-04-23T09:11:48;2.63;;;2.23;;
14849;SDS011;7517;48.400;11.770;2023-04-23T09:14:16;2.13;;;1.93;;
14849;SDS011;7517;48.400;11.770;2023-04-23T09:16:43;1.80;;;1.70;;
14849;SDS011;7517;48.400;11.770;2023-04-23T09:19:10;2.30;;;2.00;;
14849;SDS011;7517;48.400;11.770;2023-04-23T09:21:40;2.07;;;1.87;;
14849;SDS011;7517;48.400;11.770;2023-04-23T09:24:09;1.93;;;1.83;;
14849;SDS011;7517;48.400;11.770;2023-04-23T09:26:43;1.60;;;1.50;;
14849;SDS011;7517;48.400;11.770;2023-04-23T09:29:12;2.30;;;1.67;;
14849;SDS011;7517;48.400;11.770;2023-04-23T09:31:43;1.80;;;1.70;;
14849;SDS011;7517;48.400;11.770;2023-04-23T09:34:11;2.00;;;1.83;;
14849;SDS011;7517;48.400;11.770;2023-04-23T09:36:43;1.67;;;1.57;;
14849;SDS011;7517;48.400;11.770;2023-04-23T09:39:13;1.47;;;1.37;;
14849;SDS011;7517;48.400;11.770;2023-04-23T09:41:42;2.20;;;1.73;;
14849;SDS011;7517;48.400;11.770;2023-04-23T09:44:16;1.97;;;1.80;;
14849;SDS011;7517;48.400;11.770;2023-04-23T09:46:46;2.50;;;2.10;;
14849;SDS011;7517;48.400;11.770;2023-04-23T09:49:14;2.17;;;2.03;;
14849;SDS011;7517;48.400;11.770;2023-04-23T09:51:42;2.07;;;1.70;;
14849;SDS011;7517;48.400;11.770;2023-04-23T09:54:13;1.60;;;1.50;;
14849;SDS011;7517;48.400;11.770;2023-04-23T09:56:43;1.73;;;1.63;;
14849;SDS011;7517;48.400;11.770;2023-04-23T09:59:19;1.83;;;1.73;;
14849;SDS011;7517;48.400;11.770;2023-04-23T10:01:49;2.70;;;2.50;;
14849;SDS011;7517;48.400;11.770;2023-04-23T10:04:19;2.00;;;1.90;;
14849;SDS011;7517;48.400;11.770;2023-04-23T10:06:53;1.90;;;1.80;;
14849;SDS011;7517;48.400;11.770;2023-04-23T10:09:21;1.90;;;1.80;;
14849;SDS011;7517;48.400;11.770;2023-04-23T10:11:52;1.97;;;1.70;;
14849;SDS011;7517;48.400;11.770;2023-04-23T10:14:21;1.50;;;1.40;;
14849;SDS011;7517;48.400;11.770;2023-04-23T10:16:51;1.80;;;1.70;;
14849;SDS011;7517;48.400;11.770;2023-04-23T10:19:23;1.60;;;1.50;;
14849;SDS011;7517;48.400;11.770;2023-04-23T10:21:54;1.43;;;1.20;;
14849;SDS011;7517;48.400;11.770;2023-04-23T10:24:26;1.40;;;1.30;;
14849;SDS011;7517;48.400;11.770;2023-04-23T10:26:57;1.47;;;1.37;;
14849;SDS011;7517;48.400;11.770;2023-04-23T10:29:27;1.77;;;1.60;;
14849;SDS011;7517;48.400;11.770;2023-04-23T10:31:56;1.73;;;1.63;;
14849;SDS011;7517;48.400;11.770;2023-04-23T10:34:26;1.77;;;1.67;;
14849;SDS011;7517;48.400;11.770;2023-04-23T10:36:59;1.60;;;1.50;;
14849;SDS011;7517;48.400;11.770;2023-04-23T10:39:29;1.70;;;1.60;;
14849;SDS011;7517;48.400;11.770;2023-04-23T10:41:58;1.33;;;1.30;;
14849;SDS011;7517;48.400;11.770;2023-04-23T10:44:31;3.27;;;2.07;;
14849;SDS011;7517;48.400;11.770;2023-04-23T10:47:01;2.07;;;1.77;;
14849;SDS011;7517;48.400;11.770;2023-04-23T10:49:31;1.80;;;1.70;;
14849;SDS011;7517;48.400;11.770;2023-04-23T10:52:01;1.70;;;1.60;;
14849;SDS011;7517;48.400;11.770;2023-04-23T10:54:34;1.53;;;1.43;;
14849;SDS011;7517;48.400;11.770;2023-04-23T10:57:02;1.50;;;1.40;;
14849;SDS011;7517;48.400;11.770;2023-04-23T10:59:32;1.73;;;1.63;;
14849;SDS011;7517;48.400;11.770;2023-04-23T11:02:07;1.50;;;1.40;;
14849;SDS011;7517;48.400;11.770;2023-04-23T11:04:40;1.73;;;1.63;;
14849;SDS011;7517;48.400;11.770;2023-04-23T11:07:14;1.57;;;1.43;;
14849;SDS011;7517;48.400;11.770;2023-04-23T11:09:45;1.50;;;1.40;;
14849;SDS011;7517;48.400;11.770;2023-04-23T11:12:29;1.27;;;1.23;;
14849;SDS011;7517;48.400;11.770;2023-04-23T11:14:58;1.80;;;1.70;;
14849;SDS011;7517;48.400;11.770;2023-04-23T11:20:26;2.13;;;1.80;;
14849;SDS011;7517;48.400;11.770;2023-04-23T11:22:54;1.80;;;1.70;;
14849;SDS011;7517;48.400;11.770;2023-04-23T11:25:22;1.70;;;1.60;;
14849;SDS011;7517;48.400;11.770;2023-04-23T11:27:52;1.73;;;1.63;;
14849;SDS011;7517;48.400;11.770;2023-04-23T11:30:23;1.80;;;1.70;;
14849;SDS011;7517;48.400;11.770;2023-04-23T11:32:53;1.90;;;1.80;;
14849;SDS011;7517;48.400;11.770;2023-04-23T11:35:24;1.60;;;1.50;;
14849;SDS011;7517;48.400;11.770;2023-04-23T11:37:52;1.70;;;1.60;;
14849;SDS011;7517;48.400;11.770;2023-04-23T11:40:22;1.77;;;1.67;;
14849;SDS011;7517;48.400;11.770;2023-04-23T11:42:50;2.17;;;2.07;;
14849;SDS011;7517;48.400;11.770;2023-04-23T11:45:20;1.63;;;1.53;;
14849;SDS011;7517;48.400;11.770;2023-04-23T11:47:49;2.20;;;1.90;;
14849;SDS011;7517;48.400;11.770;2023-04-23T11:50:20;1.70;;;1.60;;
14849;SDS011;7517;48.400;11.770;2023-04-23T11:52:50;2.00;;;1.90;;
14849;SDS011;7517;48.400;11.770;2023-04-23T11:55:19;1.93;;;1.83;;
14849;SDS011;7517;48.400;11.770;2023-04-23T11:57:48;2.40;;;2.20;;
14849;SDS011;7517;48.400;11.770;2023-04-23T12:00:18;1.80;;;1.70;;
14849;SDS011;7517;48.400;11.770;2023-04-23T12:02:51;2.50;;;2.30;;
14849;SDS011;7517;48.400;11.770;2023-04-23T12:05:20;2.57;;;2.40;;
14849;SDS011;7517;48.400;11.770;2023-04-23T12:07:49;2.00;;;1.90;;
14849;SDS011;7517;48.400;11.770;2023-04-23T12:10:19;2.00;;;1.77;;
14849;SDS011;7517;48.400;11.770;2023-04-23T12:12:48;1.90;;;1.80;;
14849;SDS011;7517;48.400;11.770;2023-04-23T12:15:17;2.37;;;2.13;;
14849;SDS011;7517;48.400;11.770;2023-04-23T12:17:47;2.60;;;2.40;;
14849;SDS011;7517;48.400;11.770;2023-04-23T12:20:18;2.20;;;2.10;;
14849;SDS011;7517;48.400;11.770;2023-04-23T12:22:46;2.17;;;1.83;;
14849;SDS011;7517;48.400;11.770;2023-04-23T12:25:14;2.00;;;1.90;;
14849;SDS011;7517;48.400;11.770;2023-04-23T12:27:44;3.93;;;2.33;;
14849;SDS011;7517;48.400;11.770;2023-04-23T12:30:11;2.00;;;1.90;;
14849;SDS011;7517;48.400;11.770;2023-04-23T12:32:42;2.50;;;2.40;;
14849;SDS011;7517;48.400;11.770;2023-04-23T12:35:09;2.30;;;2.03;;
14849;SDS011;7517;48.400;11.770;2023-04-23T12:37:38;2.50;;;2.30;;
14849;SDS011;7517;48.400;11.770;2023-04-23T12:40:05;2.40;;;2.20;;
14849;SDS011;7517;48.400;11.770;2023-04-23T12:42:35;2.30;;;2.10;;
14849;SDS011;7517;48.400;11.770;2023-04-23T12:45:08;2.17;;;2.07;;
14849;SDS011;7517;48.400;11.770;2023-04-23T12:47:36;2.00;;;1.77;;
14849;SDS011;7517;48.400;11.770;2023-04-23T12:50:03;1.60;;;1.50;;
14849;SDS011;7517;48.400;11.770;2023-04-23T12:52:31;1.73;;;1.63;;
14849;SDS011;7517;48.400;11.770;2023-04-23T12:54:59;1.73;;;1.63;;
14849;SDS011;7517;48.400;11.770;2023-04-23T12:57:30;1.57;;;1.47;;
14849;SDS011;7517;48.400;11.770;2023-04-23T12:59:58;1.40;;;1.30;;
14849;SDS011;7517;48.400;11.770;2023-04-23T13:02:26;1.50;;;1.40;;
14849;SDS011;7517;48.400;11.770;2023-04-23T13:04:53;1.60;;;1.50;;
14849;SDS011;7517;48.400;11.770;2023-04-23T13:07:24;1.30;;;1.20;;
14849;SDS011;7517;48.400;11.770;2023-04-23T13:09:52;1.50;;;1.40;;
14849;SDS011;7517;48.400;11.770;2023-04-23T13:12:21;1.40;;;1.30;;
14849;SDS011;7517;48.400;11.770;2023-04-23T13:14:48;1.57;;;1.47;;
14849;SDS011;7517;48.400;11.770;2023-04-23T13:17:16;1.67;;;1.40;;
14849;SDS011;7517;48.400;11.770;2023-04-23T13:19:44;1.40;;;1.30;;
14849;SDS011;7517;48.400;11.770;2023-04-23T13:22:11;2.10;;;1.30;;
14849;SDS011;7517;48.400;11.770;2023-04-23T13:24:39;1.20;;;1.20;;
14849;SDS011;7517;48.400;11.770;2023-04-23T13:27:06;1.03;;;1.00;;
14849;SDS011;7517;48.400;11.770;2023-04-23T13:29:33;1.57;;;1.47;;
14849;SDS011;7517;48.400;11.770;2023-04-23T13:32:01;1.40;;;1.30;;
14849;SDS011;7517;48.400;11.770;2023-04-23T13:34:28;1.63;;;1.53;;
14849;SDS011;7517;48.400;11.770;2023-04-23T13:36:57;2.10;;;1.60;;
14849;SDS011;7517;48.400;11.770;2023-04-23T13:39:29;1.43;;;1.33;;
14849;SDS011;7517;48.400;11.770;2023-04-23T13:41:56;1.50;;;1.40;;
14849;SDS011;7517;48.400;11.770;2023-04-23T13:44:24;1.40;;;1.30;;
14849;SDS011;7517;48.400;11.770;2023-04-23T13:46:51;1.67;;;1.57;;
14849;SDS011;7517;48.400;11.770;2023-04-23T13:49:18;1.67;;;1.57;;
14849;SDS011;7517;48.400;11.770;2023-04-23T13:51:46;1.67;;;1.57;;
14849;SDS011;7517;48.400;11.770;2023-04-23T13:54:15;1.60;;;1.50;;
14849;SDS011;7517;48.400;11.770;2023-04-23T13:56:42;1.50;;;1.40;;
14849;SDS011;7517;48.400;11.770;2023-04-23T13:59:09;1.70;;;1.60;;
14849;SDS011;7517;48.400;11.770;2023-04-23T14:01:37;1.63;;;1.53;;
14849;SDS011;7517;48.400;11.770;2023-04-23T14:04:04;1.37;;;1.27;;
14849;SDS011;7517;48.400;11.770;2023-04-23T14:06:31;1.63;;;1.53;;
14849;SDS011;7517;48.400;11.770;2023-04-23T14:08:58;1.60;;;1.50;;
14849;SDS011;7517;48.400;11.770;2023-04-23T14:11:27;1.93;;;1.83;;
14849;SDS011;7517;48.400;11.770;2023-04-23T14:13:54;1.30;;;1.20;;
14849;SDS011;7517;48.400;11.770;2023-04-23T14:16:22;1.80;;;1.70;;
14849;SDS011;7517;48.400;11.770;2023-04-23T14:18:49;1.47;;;1.20;;
14849;SDS011;7517;48.400;11.770;2023-04-23T14:21:17;1.60;;;1.50;;
14849;SDS011;7517;48.400;11.770;2023-04-23T14:23:48;1.43;;;1.33;;
14849;SDS011;7517;48.400;11.770;2023-04-23T14:26:22;1.87;;;1.40;;
14849;SDS011;7517;48.400;11.770;2023-04-23T14:29:07;1.80;;;1.70;;
14849;SDS011;7517;48.400;11.770;2023-04-23T14:31:42;1.80;;;1.70;;
14849;SDS011;7517;48.400;11.770;2023-04-23T14:34:10;1.60;;;1.50;;
14849;SDS011;7517;48.400;11.770;2023-04-23T14:36:37;1.60;;;1.50;;
14849;SDS011;7517;48.400;11.770;2023-04-23T14:39:17;2.07;;;1.40;;
14849;SDS011;7517;48.400;11.770;2023-04-23T14:41:51;1.50;;;1.40;;
14849;SDS011;7517;48.400;11.770;2023-04-23T14:44:18;3.17;;;1.90;;
14849;SDS011;7517;48.400;11.770;2023-04-23T14:46:47;3.23;;;1.40;;
14849;SDS011;7517;48.400;11.770;2023-04-23T14:49:18;1.30;;;1.20;;
14849;SDS011;7517;48.400;11.770;2023-04-23T14:51:46;1.67;;;1.33;;
14849;SDS011;7517;48.400;11.770;2023-04-23T14:54:18;1.93;;;1.30;;
14849;SDS011;7517;48.400;11.770;2023-04-23T14:56:45;1.63;;;1.37;;
14849;SDS011;7517;48.400;11.770;2023-04-23T14:59:14;1.57;;;1.47;;
14849;SDS011;7517;48.400;11.770;2023-04-23T15:01:41;1.73;;;1.30;;